sensor_id;sensor_type;location;lat;lon;timestamp;P1;durP1;ratioP1;P2;durP2;ratioP2
57023;SDS011;42916;54.346;18.562;2022-08-19T00:39:09;17.80;;;13.60;;
57023;SDS011;42916;54.346;18.562;2022-08-19T00:41:39;14.00;;;12.40;;
57023;SDS011;42916;54.346;18.562;2022-08-19T00:45:09;15.30;;;12.40;;
57023;SDS011;42916;54.346;18.562;2022-08-19T01:02:05;15.80;;;12.80;;
57023;SDS011;42916;54.346;18.562;2022-08-19T01:31:22;14.00;;;12.30;;
57023;SDS011;42916;54.346;18.562;2022-08-19T01:33:57;16.70;;;12.10;;
57023;SDS011;42916;54.346;18.562;2022-08-19T01:36:46;19.30;;;12.50;;
57023;SDS011;42916;54.346;18.562;2022-08-19T01:39:21;14.70;;;12.00;;
57023;SDS011;42916;54.346;18.562;2022-08-19T01:47:19;20.30;;;13.10;;
57023;SDS011;42916;54.346;18.562;2022-08-19T01:52:28;19.10;;;13.20;;
57023;SDS011;42916;54.346;18.562;2022-08-19T01:54:53;15.10;;;12.70;;
57023;SDS011;42916;54.346;18.562;2022-08-19T01:57:20;17.30;;;13.00;;
57023;SDS011;42916;54.346;18.562;2022-08-19T01:59:45;16.50;;;12.50;;
57023;SDS011;42916;54.346;18.562;2022-08-19T02:02:13;17.40;;;12.80;;
57023;SDS011;42916;54.346;18.562;2022-08-19T02:25:15;17.40;;;13.70;;
57023;SDS011;42916;54.346;18.562;2022-08-19T02:27:42;18.20;;;13.40;;
57023;SDS011;42916;54.346;18.562;2022-08-19T02:30:11;14.90;;;13.30;;
57023;SDS011;42916;54.346;18.562;2022-08-19T02:32:41;18.10;;;14.10;;
57023;SDS011;42916;54.346;18.562;2022-08-19T02:35:07;17.00;;;14.30;;
57023;SDS011;42916;54.346;18.562;2022-08-19T02:37:34;19.00;;;13.10;;
57023;SDS011;42916;54.346;18.562;2022-08-19T02:40:19;18.30;;;13.30;;
57023;SDS011;42916;54.346;18.562;2022-08-19T02:42:45;20.40;;;14.10;;
57023;SDS011;42916;54.346;18.562;2022-08-19T02:45:12;18.50;;;13.50;;
57023;SDS011;42916;54.346;18.562;2022-08-19T02:47:39;16.80;;;13.40;;
57023;SDS011;42916;54.346;18.562;2022-08-19T02:50:05;14.90;;;12.30;;
57023;SDS011;42916;54.346;18.562;2022-08-19T02:52:32;18.60;;;13.80;;
57023;SDS011;42916;54.346;18.562;2022-08-19T02:54:59;18.90;;;13.60;;
57023;SDS011;42916;54.346;18.562;2022-08-19T02:57:26;16.70;;;13.30;;
57023;SDS011;42916;54.346;18.562;2022-08-19T02:59:53;17.70;;;13.70;;
57023;SDS011;42916;54.346;18.562;2022-08-19T03:02:19;19.10;;;13.00;;
57023;SDS011;42916;54.346;18.562;2022-08-19T03:04:45;16.00;;;12.40;;
57023;SDS011;42916;54.346;18.562;2022-08-19T03:07:15;16.40;;;13.20;;
57023;SDS011;42916;54.346;18.562;2022-08-19T03:09:42;16.00;;;12.70;;
57023;SDS011;42916;54.346;18.562;2022-08-19T03:12:08;17.30;;;13.10;;
57023;SDS011;42916;54.346;18.562;2022-08-19T03:14:34;15.10;;;12.80;;
57023;SDS011;42916;54.346;18.562;2022-08-19T03:17:01;19.50;;;13.60;;
57023;SDS011;42916;54.346;18.562;2022-08-19T03:19:30;16.40;;;12.80;;
57023;SDS011;42916;54.346;18.562;2022-08-19T03:21:57;15.00;;;13.00;;
57023;SDS011;42916;54.346;18.562;2022-08-19T03:24:24;15.20;;;12.90;;
57023;SDS011;42916;54.346;18.562;2022-08-19T03:26:52;17.90;;;13.10;;
57023;SDS011;42916;54.346;18.562;2022-08-19T03:29:25;16.60;;;13.30;;
57023;SDS011;42916;54.346;18.562;2022-08-19T03:31:52;18.20;;;13.30;;
57023;SDS011;42916;54.346;18.562;2022-08-19T03:34:20;16.20;;;12.40;;
57023;SDS011;42916;54.346;18.562;2022-08-19T03:36:48;16.70;;;12.50;;
57023;SDS011;42916;54.346;18.562;2022-08-19T03:39:14;15.90;;;13.00;;
57023;SDS011;42916;54.346;18.562;2022-08-19T03:41:42;14.90;;;12.90;;
57023;SDS011;42916;54.346;18.562;2022-08-19T03:46:35;16.50;;;12.60;;
57023;SDS011;42916;54.346;18.562;2022-08-19T03:49:03;13.90;;;12.40;;
57023;SDS011;42916;54.346;18.562;2022-08-19T03:51:35;18.90;;;13.90;;
57023;SDS011;42916;54.346;18.562;2022-08-19T03:54:05;15.60;;;13.10;;
57023;SDS011;42916;54.346;18.562;2022-08-19T03:56:33;17.00;;;13.30;;
57023;SDS011;42916;54.346;18.562;2022-08-19T03:59:01;16.90;;;12.80;;
57023;SDS011;42916;54.346;18.562;2022-08-19T04:01:28;15.40;;;13.10;;
57023;SDS011;42916;54.346;18.562;2022-08-19T04:03:55;14.40;;;12.50;;
57023;SDS011;42916;54.346;18.562;2022-08-19T04:06:24;16.20;;;13.40;;
57023;SDS011;42916;54.346;18.562;2022-08-19T04:08:52;14.60;;;13.10;;
57023;SDS011;42916;54.346;18.562;2022-08-19T04:11:23;14.50;;;13.00;;
57023;SDS011;42916;54.346;18.562;2022-08-19T04:13:54;15.90;;;12.70;;
57023;SDS011;42916;54.346;18.562;2022-08-19T04:16:22;14.40;;;12.90;;
57023;SDS011;42916;54.346;18.562;2022-08-19T04:21:17;15.90;;;13.10;;
57023;SDS011;42916;54.346;18.562;2022-08-19T04:26:15;17.70;;;13.70;;
57023;SDS011;42916;54.346;18.562;2022-08-19T04:28:48;16.10;;;13.00;;
57023;SDS011;42916;54.346;18.562;2022-08-19T04:31:15;14.50;;;12.10;;
57023;SDS011;42916;54.346;18.562;2022-08-19T04:33:43;17.70;;;13.20;;
57023;SDS011;42916;54.346;18.562;2022-08-19T04:36:19;14.60;;;12.70;;
57023;SDS011;42916;54.346;18.562;2022-08-19T04:38:48;15.00;;;12.70;;
57023;SDS011;42916;54.346;18.562;2022-08-19T04:41:15;19.60;;;12.80;;
57023;SDS011;42916;54.346;18.562;2022-08-19T04:44:00;14.00;;;11.90;;
57023;SDS011;42916;54.346;18.562;2022-08-19T04:46:28;14.10;;;12.50;;
57023;SDS011;42916;54.346;18.562;2022-08-19T04:48:58;15.90;;;13.20;;
57023;SDS011;42916;54.346;18.562;2022-08-19T04:51:25;16.00;;;12.10;;
57023;SDS011;42916;54.346;18.562;2022-08-19T04:53:52;16.90;;;14.20;;
57023;SDS011;42916;54.346;18.562;2022-08-19T04:56:19;18.80;;;13.00;;
57023;SDS011;42916;54.346;18.562;2022-08-19T04:58:52;16.60;;;14.40;;
57023;SDS011;42916;54.346;18.562;2022-08-19T05:01:23;17.80;;;14.90;;
57023;SDS011;42916;54.346;18.562;2022-08-19T05:03:54;18.80;;;14.60;;
57023;SDS011;42916;54.346;18.562;2022-08-19T05:06:22;16.50;;;14.70;;
57023;SDS011;42916;54.346;18.562;2022-08-19T05:08:49;17.90;;;13.50;;
57023;SDS011;42916;54.346;18.562;2022-08-19T05:11:19;19.60;;;14.10;;
57023;SDS011;42916;54.346;18.562;2022-08-19T05:13:51;16.30;;;13.90;;
57023;SDS011;42916;54.346;18.562;2022-08-19T05:16:18;20.00;;;13.40;;
57023;SDS011;42916;54.346;18.562;2022-08-19T05:18:46;16.90;;;13.60;;
57023;SDS011;42916;54.346;18.562;2022-08-19T05:21:31;18.20;;;13.50;;
57023;SDS011;42916;54.346;18.562;2022-08-19T05:24:17;16.90;;;13.50;;
57023;SDS011;42916;54.346;18.562;2022-08-19T05:26:45;16.30;;;14.30;;
57023;SDS011;42916;54.346;18.562;2022-08-19T05:29:14;20.00;;;13.70;;
57023;SDS011;42916;54.346;18.562;2022-08-19T05:34:08;18.30;;;12.80;;
57023;SDS011;42916;54.346;18.562;2022-08-19T05:36:41;17.00;;;12.70;;
57023;SDS011;42916;54.346;18.562;2022-08-19T05:39:10;16.30;;;12.30;;
57023;SDS011;42916;54.346;18.562;2022-08-19T05:41:42;17.30;;;12.90;;
57023;SDS011;42916;54.346;18.562;2022-08-19T05:44:10;14.40;;;12.10;;
57023;SDS011;42916;54.346;18.562;2022-08-19T05:46:39;17.40;;;12.30;;
57023;SDS011;42916;54.346;18.562;2022-08-19T05:49:05;16.00;;;13.40;;
57023;SDS011;42916;54.346;18.562;2022-08-19T05:51:33;16.00;;;13.00;;
57023;SDS011;42916;54.346;18.562;2022-08-19T05:54:01;17.20;;;12.50;;
57023;SDS011;42916;54.346;18.562;2022-08-19T05:56:28;19.70;;;12.30;;
57023;SDS011;42916;54.346;18.562;2022-08-19T05:58:56;14.30;;;11.30;;
57023;SDS011;42916;54.346;18.562;2022-08-19T06:01:24;17.00;;;11.90;;
57023;SDS011;42916;54.346;18.562;2022-08-19T06:03:51;21.10;;;12.30;;
57023;SDS011;42916;54.346;18.562;2022-08-19T06:06:19;20.70;;;12.70;;
57023;SDS011;42916;54.346;18.562;2022-08-19T06:08:47;17.00;;;12.70;;
57023;SDS011;42916;54.346;18.562;2022-08-19T06:11:24;16.60;;;11.70;;
57023;SDS011;42916;54.346;18.562;2022-08-19T06:14:12;16.90;;;11.40;;
57023;SDS011;42916;54.346;18.562;2022-08-19T06:16:44;13.60;;;11.10;;
57023;SDS011;42916;54.346;18.562;2022-08-19T06:19:11;13.00;;;11.20;;
57023;SDS011;42916;54.346;18.562;2022-08-19T06:21:42;14.20;;;12.00;;
57023;SDS011;42916;54.346;18.562;2022-08-19T06:24:10;16.70;;;12.30;;
57023;SDS011;42916;54.346;18.562;2022-08-19T06:26:39;13.40;;;11.40;;
57023;SDS011;42916;54.346;18.562;2022-08-19T06:29:07;13.80;;;10.90;;
57023;SDS011;42916;54.346;18.562;2022-08-19T06:31:34;15.40;;;11.80;;
57023;SDS011;42916;54.346;18.562;2022-08-19T06:34:03;17.30;;;11.40;;
57023;SDS011;42916;54.346;18.562;2022-08-19T06:36:32;15.30;;;11.50;;
57023;SDS011;42916;54.346;18.562;2022-08-19T06:39:01;15.90;;;12.50;;
57023;SDS011;42916;54.346;18.562;2022-08-19T06:41:34;14.20;;;10.60;;
57023;SDS011;42916;54.346;18.562;2022-08-19T06:44:01;16.70;;;11.70;;
57023;SDS011;42916;54.346;18.562;2022-08-19T06:46:28;14.50;;;13.00;;
57023;SDS011;42916;54.346;18.562;2022-08-19T06:48:54;16.90;;;12.30;;
57023;SDS011;42916;54.346;18.562;2022-08-19T06:51:21;18.80;;;12.70;;
57023;SDS011;42916;54.346;18.562;2022-08-19T06:53:48;12.80;;;10.90;;
57023;SDS011;42916;54.346;18.562;2022-08-19T06:56:16;12.30;;;10.50;;
57023;SDS011;42916;54.346;18.562;2022-08-19T06:58:43;13.40;;;10.60;;
57023;SDS011;42916;54.346;18.562;2022-08-19T07:01:10;18.70;;;11.30;;
57023;SDS011;42916;54.346;18.562;2022-08-19T07:03:36;14.20;;;11.50;;
57023;SDS011;42916;54.346;18.562;2022-08-19T07:06:07;14.00;;;11.40;;
57023;SDS011;42916;54.346;18.562;2022-08-19T07:08:35;12.10;;;10.80;;
57023;SDS011;42916;54.346;18.562;2022-08-19T07:11:08;13.10;;;10.80;;
57023;SDS011;42916;54.346;18.562;2022-08-19T07:13:36;21.20;;;11.60;;
57023;SDS011;42916;54.346;18.562;2022-08-19T07:16:06;15.60;;;11.40;;
57023;SDS011;42916;54.346;18.562;2022-08-19T07:18:34;17.80;;;11.10;;
57023;SDS011;42916;54.346;18.562;2022-08-19T07:25:55;11.90;;;10.60;;
57023;SDS011;42916;54.346;18.562;2022-08-19T07:28:22;13.70;;;10.70;;
57023;SDS011;42916;54.346;18.562;2022-08-19T07:30:48;13.70;;;11.10;;
57023;SDS011;42916;54.346;18.562;2022-08-19T07:33:15;15.70;;;10.80;;
57023;SDS011;42916;54.346;18.562;2022-08-19T07:35:43;13.10;;;11.40;;
57023;SDS011;42916;54.346;18.562;2022-08-19T07:38:09;14.40;;;11.60;;
57023;SDS011;42916;54.346;18.562;2022-08-19T07:40:35;13.30;;;11.10;;
57023;SDS011;42916;54.346;18.562;2022-08-19T07:43:01;14.00;;;10.90;;
57023;SDS011;42916;54.346;18.562;2022-08-19T07:45:27;20.10;;;11.90;;
57023;SDS011;42916;54.346;18.562;2022-08-19T07:47:54;13.70;;;11.10;;
57023;SDS011;42916;54.346;18.562;2022-08-19T07:50:21;15.50;;;11.80;;
57023;SDS011;42916;54.346;18.562;2022-08-19T07:52:47;16.00;;;10.80;;
57023;SDS011;42916;54.346;18.562;2022-08-19T07:55:16;17.90;;;10.60;;
57023;SDS011;42916;54.346;18.562;2022-08-19T07:57:44;16.80;;;10.20;;
57023;SDS011;42916;54.346;18.562;2022-08-19T08:00:10;13.10;;;10.50;;
57023;SDS011;42916;54.346;18.562;2022-08-19T08:02:37;12.10;;;10.70;;
57023;SDS011;42916;54.346;18.562;2022-08-19T08:05:04;16.50;;;10.40;;
57023;SDS011;42916;54.346;18.562;2022-08-19T08:07:49;14.40;;;10.50;;
57023;SDS011;42916;54.346;18.562;2022-08-19T08:10:34;14.50;;;10.70;;
57023;SDS011;42916;54.346;18.562;2022-08-19T08:13:00;14.30;;;10.10;;
57023;SDS011;42916;54.346;18.562;2022-08-19T08:15:26;13.40;;;10.50;;
57023;SDS011;42916;54.346;18.562;2022-08-19T08:17:52;12.40;;;10.00;;
57023;SDS011;42916;54.346;18.562;2022-08-19T08:20:18;15.10;;;10.10;;
57023;SDS011;42916;54.346;18.562;2022-08-19T08:22:45;12.30;;;9.90;;
57023;SDS011;42916;54.346;18.562;2022-08-19T08:25:31;14.10;;;10.30;;
57023;SDS011;42916;54.346;18.562;2022-08-19T08:27:58;11.90;;;9.90;;
57023;SDS011;42916;54.346;18.562;2022-08-19T08:30:26;16.10;;;9.20;;
57023;SDS011;42916;54.346;18.562;2022-08-19T08:32:53;11.70;;;9.30;;
57023;SDS011;42916;54.346;18.562;2022-08-19T08:35:20;18.50;;;9.70;;
57023;SDS011;42916;54.346;18.562;2022-08-19T08:37:49;9.90;;;8.50;;
57023;SDS011;42916;54.346;18.562;2022-08-19T08:40:22;11.00;;;9.00;;
57023;SDS011;42916;54.346;18.562;2022-08-19T08:43:03;10.00;;;8.90;;
57023;SDS011;42916;54.346;18.562;2022-08-19T08:45:36;14.70;;;9.20;;
57023;SDS011;42916;54.346;18.562;2022-08-19T08:48:13;11.00;;;9.30;;
57023;SDS011;42916;54.346;18.562;2022-08-19T08:50:46;12.30;;;9.10;;
57023;SDS011;42916;54.346;18.562;2022-08-19T08:53:16;17.10;;;8.60;;
57023;SDS011;42916;54.346;18.562;2022-08-19T08:55:43;10.90;;;8.60;;
57023;SDS011;42916;54.346;18.562;2022-08-19T08:58:19;13.50;;;7.80;;
57023;SDS011;42916;54.346;18.562;2022-08-19T09:00:52;13.90;;;8.20;;
57023;SDS011;42916;54.346;18.562;2022-08-19T09:03:19;13.50;;;8.10;;
57023;SDS011;42916;54.346;18.562;2022-08-19T09:08:28;12.20;;;8.20;;
57023;SDS011;42916;54.346;18.562;2022-08-19T09:14:06;11.40;;;7.50;;
57023;SDS011;42916;54.346;18.562;2022-08-19T09:16:41;12.50;;;7.00;;
57023;SDS011;42916;54.346;18.562;2022-08-19T09:19:07;12.10;;;8.00;;
57023;SDS011;42916;54.346;18.562;2022-08-19T09:21:34;13.80;;;8.10;;
57023;SDS011;42916;54.346;18.562;2022-08-19T09:24:00;12.80;;;7.90;;
57023;SDS011;42916;54.346;18.562;2022-08-19T09:26:27;15.40;;;7.50;;
57023;SDS011;42916;54.346;18.562;2022-08-19T09:28:53;11.30;;;7.10;;
57023;SDS011;42916;54.346;18.562;2022-08-19T09:31:22;10.60;;;7.30;;
57023;SDS011;42916;54.346;18.562;2022-08-19T09:33:50;12.30;;;7.10;;
57023;SDS011;42916;54.346;18.562;2022-08-19T09:36:17;10.70;;;7.80;;
57023;SDS011;42916;54.346;18.562;2022-08-19T09:38:45;11.20;;;7.50;;
57023;SDS011;42916;54.346;18.562;2022-08-19T09:41:14;10.10;;;6.70;;
57023;SDS011;42916;54.346;18.562;2022-08-19T09:43:48;16.60;;;7.40;;
57023;SDS011;42916;54.346;18.562;2022-08-19T09:46:21;11.90;;;6.70;;
57023;SDS011;42916;54.346;18.562;2022-08-19T09:48:48;11.00;;;7.00;;
57023;SDS011;42916;54.346;18.562;2022-08-19T09:51:18;12.20;;;6.80;;
57023;SDS011;42916;54.346;18.562;2022-08-19T09:53:50;7.50;;;6.80;;
57023;SDS011;42916;54.346;18.562;2022-08-19T09:56:19;13.80;;;7.40;;
57023;SDS011;42916;54.346;18.562;2022-08-19T09:58:46;11.10;;;7.10;;
57023;SDS011;42916;54.346;18.562;2022-08-19T10:01:21;10.70;;;6.50;;
57023;SDS011;42916;54.346;18.562;2022-08-19T10:03:49;12.90;;;7.70;;
57023;SDS011;42916;54.346;18.562;2022-08-19T10:06:18;16.90;;;7.30;;
57023;SDS011;42916;54.346;18.562;2022-08-19T10:08:45;10.20;;;6.40;;
57023;SDS011;42916;54.346;18.562;2022-08-19T10:11:13;10.00;;;6.80;;
57023;SDS011;42916;54.346;18.562;2022-08-19T10:13:41;12.20;;;7.30;;
57023;SDS011;42916;54.346;18.562;2022-08-19T10:16:13;9.50;;;7.00;;
57023;SDS011;42916;54.346;18.562;2022-08-19T10:18:41;9.40;;;7.10;;
57023;SDS011;42916;54.346;18.562;2022-08-19T10:21:11;9.20;;;6.80;;
57023;SDS011;42916;54.346;18.562;2022-08-19T10:23:39;9.30;;;6.80;;
57023;SDS011;42916;54.346;18.562;2022-08-19T10:26:11;7.90;;;6.20;;
57023;SDS011;42916;54.346;18.562;2022-08-19T10:28:41;13.50;;;6.50;;
57023;SDS011;42916;54.346;18.562;2022-08-19T10:31:09;11.00;;;6.30;;
57023;SDS011;42916;54.346;18.562;2022-08-19T10:33:38;11.40;;;6.80;;
57023;SDS011;42916;54.346;18.562;2022-08-19T10:36:06;9.40;;;7.00;;
57023;SDS011;42916;54.346;18.562;2022-08-19T10:38:35;9.30;;;6.00;;
57023;SDS011;42916;54.346;18.562;2022-08-19T10:41:12;14.60;;;7.50;;
57023;SDS011;42916;54.346;18.562;2022-08-19T10:43:59;11.90;;;6.50;;
57023;SDS011;42916;54.346;18.562;2022-08-19T10:46:27;6.70;;;5.60;;
57023;SDS011;42916;54.346;18.562;2022-08-19T10:48:54;8.20;;;6.40;;
57023;SDS011;42916;54.346;18.562;2022-08-19T10:51:21;7.90;;;6.10;;
57023;SDS011;42916;54.346;18.562;2022-08-19T10:54:06;13.70;;;6.20;;
57023;SDS011;42916;54.346;18.562;2022-08-19T10:56:32;10.20;;;6.20;;
57023;SDS011;42916;54.346;18.562;2022-08-19T10:59:27;9.90;;;6.10;;
57023;SDS011;42916;54.346;18.562;2022-08-19T11:01:58;12.90;;;6.40;;
57023;SDS011;42916;54.346;18.562;2022-08-19T11:04:26;8.60;;;6.40;;
57023;SDS011;42916;54.346;18.562;2022-08-19T11:06:52;8.60;;;6.40;;
57023;SDS011;42916;54.346;18.562;2022-08-19T11:09:21;8.10;;;6.40;;
57023;SDS011;42916;54.346;18.562;2022-08-19T11:11:53;12.40;;;7.00;;
57023;SDS011;42916;54.346;18.562;2022-08-19T11:14:20;12.00;;;6.90;;
57023;SDS011;42916;54.346;18.562;2022-08-19T11:16:47;10.00;;;6.90;;
57023;SDS011;42916;54.346;18.562;2022-08-19T11:19:14;10.20;;;6.60;;
57023;SDS011;42916;54.346;18.562;2022-08-19T11:21:45;11.30;;;6.90;;
57023;SDS011;42916;54.346;18.562;2022-08-19T11:24:14;9.70;;;6.00;;
57023;SDS011;42916;54.346;18.562;2022-08-19T11:26:46;9.90;;;7.10;;
57023;SDS011;42916;54.346;18.562;2022-08-19T11:29:16;13.40;;;6.50;;
57023;SDS011;42916;54.346;18.562;2022-08-19T11:31:45;13.10;;;7.10;;
57023;SDS011;42916;54.346;18.562;2022-08-19T11:34:15;12.50;;;6.60;;
57023;SDS011;42916;54.346;18.562;2022-08-19T11:36:47;15.90;;;6.60;;
57023;SDS011;42916;54.346;18.562;2022-08-19T11:39:14;10.50;;;6.40;;
57023;SDS011;42916;54.346;18.562;2022-08-19T11:41:43;16.00;;;7.00;;
57023;SDS011;42916;54.346;18.562;2022-08-19T11:44:09;8.40;;;6.10;;
57023;SDS011;42916;54.346;18.562;2022-08-19T11:46:35;10.80;;;6.40;;
57023;SDS011;42916;54.346;18.562;2022-08-19T11:49:04;10.20;;;6.30;;
57023;SDS011;42916;54.346;18.562;2022-08-19T11:51:34;9.20;;;6.40;;
57023;SDS011;42916;54.346;18.562;2022-08-19T11:54:01;7.90;;;6.20;;
57023;SDS011;42916;54.346;18.562;2022-08-19T11:56:27;12.10;;;6.50;;
57023;SDS011;42916;54.346;18.562;2022-08-19T11:58:54;12.00;;;7.20;;
57023;SDS011;42916;54.346;18.562;2022-08-19T12:01:23;11.00;;;6.60;;
57023;SDS011;42916;54.346;18.562;2022-08-19T12:06:21;10.60;;;6.80;;
57023;SDS011;42916;54.346;18.562;2022-08-19T12:08:52;12.30;;;6.50;;
57023;SDS011;42916;54.346;18.562;2022-08-19T12:11:19;13.20;;;6.60;;
57023;SDS011;42916;54.346;18.562;2022-08-19T12:13:45;13.10;;;6.30;;
57023;SDS011;42916;54.346;18.562;2022-08-19T12:16:13;15.20;;;6.60;;
57023;SDS011;42916;54.346;18.562;2022-08-19T12:18:44;12.10;;;6.10;;
57023;SDS011;42916;54.346;18.562;2022-08-19T12:21:14;9.30;;;5.60;;
57023;SDS011;42916;54.346;18.562;2022-08-19T12:23:42;8.60;;;6.40;;
57023;SDS011;42916;54.346;18.562;2022-08-19T12:26:10;11.40;;;6.30;;
57023;SDS011;42916;54.346;18.562;2022-08-19T12:28:37;11.20;;;6.60;;
57023;SDS011;42916;54.346;18.562;2022-08-19T12:31:04;9.30;;;6.40;;
57023;SDS011;42916;54.346;18.562;2022-08-19T12:33:30;12.60;;;6.30;;
57023;SDS011;42916;54.346;18.562;2022-08-19T12:36:01;11.70;;;5.90;;
57023;SDS011;42916;54.346;18.562;2022-08-19T12:38:29;9.60;;;6.20;;
57023;SDS011;42916;54.346;18.562;2022-08-19T12:40:55;14.90;;;5.90;;
57023;SDS011;42916;54.346;18.562;2022-08-19T12:43:21;12.50;;;5.60;;
57023;SDS011;42916;54.346;18.562;2022-08-19T12:45:47;17.20;;;6.40;;
57023;SDS011;42916;54.346;18.562;2022-08-19T12:48:14;11.30;;;6.10;;
57023;SDS011;42916;54.346;18.562;2022-08-19T12:50:40;10.20;;;6.20;;
57023;SDS011;42916;54.346;18.562;2022-08-19T12:53:08;14.10;;;5.80;;
57023;SDS011;42916;54.346;18.562;2022-08-19T12:55:34;8.70;;;5.30;;
57023;SDS011;42916;54.346;18.562;2022-08-19T12:58:00;12.00;;;5.70;;
57023;SDS011;42916;54.346;18.562;2022-08-19T13:00:29;11.30;;;6.70;;
57023;SDS011;42916;54.346;18.562;2022-08-19T13:02:58;9.30;;;5.90;;
57023;SDS011;42916;54.346;18.562;2022-08-19T13:05:28;12.70;;;5.80;;
57023;SDS011;42916;54.346;18.562;2022-08-19T13:07:57;11.60;;;6.60;;
57023;SDS011;42916;54.346;18.562;2022-08-19T13:10:26;9.40;;;6.30;;
57023;SDS011;42916;54.346;18.562;2022-08-19T13:12:54;12.20;;;6.00;;
57023;SDS011;42916;54.346;18.562;2022-08-19T13:15:21;10.00;;;6.30;;
57023;SDS011;42916;54.346;18.562;2022-08-19T13:17:49;8.20;;;6.20;;
57023;SDS011;42916;54.346;18.562;2022-08-19T13:20:18;9.70;;;6.00;;
57023;SDS011;42916;54.346;18.562;2022-08-19T13:22:46;6.80;;;5.60;;
57023;SDS011;42916;54.346;18.562;2022-08-19T13:25:14;11.50;;;5.50;;
57023;SDS011;42916;54.346;18.562;2022-08-19T13:27:43;8.60;;;5.80;;
57023;SDS011;42916;54.346;18.562;2022-08-19T13:30:10;11.00;;;6.20;;
57023;SDS011;42916;54.346;18.562;2022-08-19T13:32:57;13.00;;;6.70;;
57023;SDS011;42916;54.346;18.562;2022-08-19T13:36:01;8.60;;;6.20;;
57023;SDS011;42916;54.346;18.562;2022-08-19T13:38:27;9.90;;;6.40;;
57023;SDS011;42916;54.346;18.562;2022-08-19T13:40:55;13.20;;;6.30;;
57023;SDS011;42916;54.346;18.562;2022-08-19T13:43:24;9.30;;;5.90;;
57023;SDS011;42916;54.346;18.562;2022-08-19T13:45:53;12.70;;;5.70;;
57023;SDS011;42916;54.346;18.562;2022-08-19T13:48:21;8.30;;;5.90;;
57023;SDS011;42916;54.346;18.562;2022-08-19T13:50:49;7.60;;;6.10;;
57023;SDS011;42916;54.346;18.562;2022-08-19T13:53:15;11.30;;;6.40;;
57023;SDS011;42916;54.346;18.562;2022-08-19T13:55:43;11.30;;;6.10;;
57023;SDS011;42916;54.346;18.562;2022-08-19T14:00:38;6.70;;;5.20;;
57023;SDS011;42916;54.346;18.562;2022-08-19T14:03:07;10.60;;;5.80;;
57023;SDS011;42916;54.346;18.562;2022-08-19T14:05:33;9.80;;;6.10;;
57023;SDS011;42916;54.346;18.562;2022-08-19T14:08:00;11.10;;;5.80;;
57023;SDS011;42916;54.346;18.562;2022-08-19T14:10:26;10.20;;;5.80;;
57023;SDS011;42916;54.346;18.562;2022-08-19T14:12:54;9.50;;;5.50;;
57023;SDS011;42916;54.346;18.562;2022-08-19T14:15:24;11.00;;;5.60;;
57023;SDS011;42916;54.346;18.562;2022-08-19T14:17:51;9.00;;;5.80;;
57023;SDS011;42916;54.346;18.562;2022-08-19T14:20:17;10.30;;;6.40;;
57023;SDS011;42916;54.346;18.562;2022-08-19T14:22:43;9.80;;;5.90;;
57023;SDS011;42916;54.346;18.562;2022-08-19T14:25:12;10.90;;;5.90;;
57023;SDS011;42916;54.346;18.562;2022-08-19T14:27:41;10.80;;;5.60;;
57023;SDS011;42916;54.346;18.562;2022-08-19T14:30:08;8.40;;;5.60;;
57023;SDS011;42916;54.346;18.562;2022-08-19T14:32:36;7.00;;;5.70;;
57023;SDS011;42916;54.346;18.562;2022-08-19T14:35:02;9.40;;;5.40;;
57023;SDS011;42916;54.346;18.562;2022-08-19T14:39:56;10.30;;;5.80;;
57023;SDS011;42916;54.346;18.562;2022-08-19T14:42:22;8.20;;;6.20;;
57023;SDS011;42916;54.346;18.562;2022-08-19T14:44:47;10.40;;;5.80;;
57023;SDS011;42916;54.346;18.562;2022-08-19T14:47:13;8.70;;;6.20;;
57023;SDS011;42916;54.346;18.562;2022-08-19T14:49:39;9.10;;;6.00;;
57023;SDS011;42916;54.346;18.562;2022-08-19T14:52:05;8.80;;;6.50;;
57023;SDS011;42916;54.346;18.562;2022-08-19T14:54:31;11.60;;;6.60;;
57023;SDS011;42916;54.346;18.562;2022-08-19T14:56:58;9.90;;;6.50;;
57023;SDS011;42916;54.346;18.562;2022-08-19T14:59:24;13.90;;;6.30;;
57023;SDS011;42916;54.346;18.562;2022-08-19T15:01:50;10.30;;;6.60;;
57023;SDS011;42916;54.346;18.562;2022-08-19T15:04:16;10.00;;;6.80;;
57023;SDS011;42916;54.346;18.562;2022-08-19T15:06:42;11.30;;;6.40;;
57023;SDS011;42916;54.346;18.562;2022-08-19T15:09:08;9.90;;;6.30;;
57023;SDS011;42916;54.346;18.562;2022-08-19T15:11:35;12.10;;;7.30;;
57023;SDS011;42916;54.346;18.562;2022-08-19T15:14:02;9.60;;;7.00;;
57023;SDS011;42916;54.346;18.562;2022-08-19T15:16:28;8.80;;;7.10;;
57023;SDS011;42916;54.346;18.562;2022-08-19T15:18:55;10.50;;;7.00;;
57023;SDS011;42916;54.346;18.562;2022-08-19T15:21:24;7.40;;;6.60;;
57023;SDS011;42916;54.346;18.562;2022-08-19T15:23:51;8.60;;;6.80;;
57023;SDS011;42916;54.346;18.562;2022-08-19T15:26:18;12.60;;;7.30;;
57023;SDS011;42916;54.346;18.562;2022-08-19T15:28:45;12.50;;;6.90;;
57023;SDS011;42916;54.346;18.562;2022-08-19T15:31:12;13.40;;;7.40;;
57023;SDS011;42916;54.346;18.562;2022-08-19T15:33:42;11.10;;;7.40;;
57023;SDS011;42916;54.346;18.562;2022-08-19T15:36:08;11.90;;;7.50;;
57023;SDS011;42916;54.346;18.562;2022-08-19T15:38:37;12.70;;;7.10;;
57023;SDS011;42916;54.346;18.562;2022-08-19T15:41:04;11.30;;;7.00;;
57023;SDS011;42916;54.346;18.562;2022-08-19T15:43:52;8.60;;;6.80;;
57023;SDS011;42916;54.346;18.562;2022-08-19T15:46:21;15.60;;;7.50;;
57023;SDS011;42916;54.346;18.562;2022-08-19T15:48:49;8.00;;;7.20;;
57023;SDS011;42916;54.346;18.562;2022-08-19T15:51:17;8.80;;;7.20;;
57023;SDS011;42916;54.346;18.562;2022-08-19T15:53:44;10.90;;;7.50;;
57023;SDS011;42916;54.346;18.562;2022-08-19T15:56:10;9.30;;;7.30;;
57023;SDS011;42916;54.346;18.562;2022-08-19T15:58:37;11.00;;;7.40;;
57023;SDS011;42916;54.346;18.562;2022-08-19T16:01:22;15.60;;;8.50;;
57023;SDS011;42916;54.346;18.562;2022-08-19T16:03:57;11.40;;;7.40;;
57023;SDS011;42916;54.346;18.562;2022-08-19T16:06:48;13.90;;;7.50;;
57023;SDS011;42916;54.346;18.562;2022-08-19T16:09:16;10.20;;;7.10;;
57023;SDS011;42916;54.346;18.562;2022-08-19T16:11:44;12.20;;;7.90;;
57023;SDS011;42916;54.346;18.562;2022-08-19T16:14:13;13.00;;;7.50;;
57023;SDS011;42916;54.346;18.562;2022-08-19T16:16:40;11.10;;;7.20;;
57023;SDS011;42916;54.346;18.562;2022-08-19T16:19:11;12.90;;;7.50;;
57023;SDS011;42916;54.346;18.562;2022-08-19T16:21:42;15.00;;;7.60;;
57023;SDS011;42916;54.346;18.562;2022-08-19T16:24:11;11.20;;;6.20;;
57023;SDS011;42916;54.346;18.562;2022-08-19T16:26:39;14.60;;;7.60;;
57023;SDS011;42916;54.346;18.562;2022-08-19T16:29:06;13.60;;;7.60;;
57023;SDS011;42916;54.346;18.562;2022-08-19T16:31:33;11.90;;;7.80;;
57023;SDS011;42916;54.346;18.562;2022-08-19T16:34:00;10.30;;;8.20;;
57023;SDS011;42916;54.346;18.562;2022-08-19T16:36:26;10.70;;;7.80;;
57023;SDS011;42916;54.346;18.562;2022-08-19T16:38:53;13.80;;;8.60;;
57023;SDS011;42916;54.346;18.562;2022-08-19T16:41:19;14.00;;;7.90;;
57023;SDS011;42916;54.346;18.562;2022-08-19T16:43:46;12.50;;;8.80;;
57023;SDS011;42916;54.346;18.562;2022-08-19T16:46:17;14.20;;;9.00;;